Time;durP1;ratioP1;P1;durP2;ratioP2;P2;SDS_P1;SDS_P2;PMS_P1;PMS_P2;Temp;Humidity;BMP_temperature;BMP_pressure;BME280_temperature;BME280_humidity;BME280_pressure;Samples;Min_cycle;Max_cycle;Signal;HPM_P1;HPM_P2
2022/06/11 00:01:17;;;;;;;;;8.75;7.00;;;;;;;;5138586;27;9532;-44
2022/06/11 00:04:05;;;;;;;;;6.75;5.00;;;;;;;;5138420;27;8785;-46
2022/06/11 00:06:52;;;;;;;;;14.75;8.25;;;;;;;;5138446;27;9567;-47
2022/06/11 00:09:43;;;;;;;;;7.50;4.50;;;;;;;;5124046;27;8796;-46
2022/06/11 00:12:28;;;;;;;;;8.25;5.25;;;;;;;;5138783;27;8784;-47
2022/06/11 00:15:13;;;;;;;;;8.75;5.25;;;;;;;;5138216;27;9599;-46
2022/06/11 00:17:59;;;;;;;;;7.50;6.00;;;;;;;;5138447;27;8784;-46
2022/06/11 00:20:46;;;;;;;;;8.00;5.00;;;;;;;;5138450;27;8777;-45
2022/06/11 00:23:31;;;;;;;;;7.25;7.25;;;;;;;;5138069;27;8769;-45
2022/06/11 00:26:15;;;;;;;;;8.50;7.25;;;;;;;;5138259;27;8768;-44
2022/06/11 00:29:00;;;;;;;;;11.25;7.00;;;;;;;;5137952;27;8772;-46
2022/06/11 00:31:45;;;;;;;;;7.00;5.75;;;;;;;;5138391;27;8915;-44
2022/06/11 00:34:29;;;;;;;;;5.50;5.00;;;;;;;;5138149;27;8796;-43
2022/06/11 00:37:14;;;;;;;;;5.00;4.75;;;;;;;;5138335;27;8776;-43
2022/06/11 00:39:59;;;;;;;;;9.75;5.25;;;;;;;;5137827;27;8808;-43
2022/06/11 00:42:46;;;;;;;;;6.00;6.00;;;;;;;;5137616;27;8777;-46
2022/06/11 00:45:44;;;;;;;;;9.75;5.75;;;;;;;;5138113;27;9576;-46
2022/06/11 00:48:38;;;;;;;;;7.00;5.00;;;;;;;;5138100;27;8785;-47
2022/06/11 00:51:25;;;;;;;;;7.00;4.75;;;;;;;;5136463;27;8781;-44
2022/06/11 00:54:14;;;;;;;;;6.50;5.50;;;;;;;;5137822;27;8796;-46
2022/06/11 00:56:59;;;;;;;;;6.00;6.00;;;;;;;;5138021;27;8772;-46
2022/06/11 00:59:55;;;;;;;;;7.75;4.75;;;;;;;;5137684;27;8773;-45
2022/06/11 01:03:02;;;;;;;;;9.25;5.75;;;;;;;;5137946;27;8899;-42
2022/06/11 01:05:57;;;;;;;;;6.25;4.75;;;;;;;;5137982;27;8789;-43
2022/06/11 01:09:01;;;;;;;;;6.75;5.50;;;;;;;;5137648;27;8777;-44
2022/06/11 01:12:10;;;;;;;;;8.00;6.00;;;;;;;;5129362;27;8780;-44
2022/06/11 01:15:17;;;;;;;;;7.25;5.00;;;;;;;;5137693;27;8800;-45
2022/06/11 01:18:20;;;;;;;;;6.00;6.00;;;;;;;;5141642;27;8765;-43
2022/06/11 01:21:05;;;;;;;;;9.50;6.75;;;;;;;;5141453;27;8777;-43
2022/06/11 01:23:53;;;;;;;;;6.00;5.00;;;;;;;;5141537;27;9547;-43
2022/06/11 01:27:08;;;;;;;;;22.75;22.75;;;;;;;;5141781;27;8765;-45
2022/06/11 01:30:10;;;;;;;;;36.75;31.75;;;;;;;;5141612;27;8906;-44
2022/06/11 01:33:02;;;;;;;;;45.50;36.00;;;;;;;;5141464;27;8773;-45
2022/06/11 01:36:03;;;;;;;;;37.75;32.00;;;;;;;;5141238;27;8777;-43
2022/06/11 01:38:52;;;;;;;;;41.50;32.75;;;;;;;;5141171;27;8772;-46
2022/06/11 01:41:56;;;;;;;;;38.75;32.50;;;;;;;;5141464;27;8764;-44
2022/06/11 01:44:42;;;;;;;;;40.25;33.00;;;;;;;;5141235;27;8781;-43
2022/06/11 01:47:26;;;;;;;;;38.00;32.00;;;;;;;;5141189;27;8824;-45
2022/06/11 01:50:12;;;;;;;;;33.00;29.75;;;;;;;;5141118;27;9548;-46
2022/06/11 01:53:19;;;;;;;;;32.00;28.50;;;;;;;;5140894;27;9528;-43
2022/06/11 01:56:19;;;;;;;;;31.75;27.50;;;;;;;;5140907;27;8819;-45
2022/06/11 01:59:07;;;;;;;;;37.75;31.25;;;;;;;;5141087;27;8789;-46
2022/06/11 02:02:11;;;;;;;;;32.75;29.00;;;;;;;;5140958;27;8804;-45
2022/06/11 02:05:24;;;;;;;;;34.75;29.25;;;;;;;;5140832;27;8928;-43
2022/06/11 02:08:47;;;;;;;;;31.75;26.00;;;;;;;;5140559;27;8772;-43
2022/06/11 02:11:39;;;;;;;;;32.75;27.75;;;;;;;;5140184;27;8793;-43
2022/06/11 02:14:26;;;;;;;;;28.75;23.75;;;;;;;;5140617;27;8793;-43
2022/06/11 02:17:34;;;;;;;;;34.75;26.50;;;;;;;;5140698;27;8789;-45
2022/06/11 02:20:33;;;;;;;;;24.25;24.00;;;;;;;;5140364;27;8765;-43
2022/06/11 02:23:22;;;;;;;;;29.00;26.75;;;;;;;;5140325;27;9623;-44
2022/06/11 02:26:15;;;;;;;;;27.50;25.50;;;;;;;;5124426;27;8781;-45
2022/06/11 02:29:01;;;;;;;;;29.00;25.50;;;;;;;;5140461;27;8797;-45
2022/06/11 02:31:49;;;;;;;;;22.50;22.00;;;;;;;;5140260;27;8777;-45
2022/06/11 02:34:37;;;;;;;;;28.25;25.75;;;;;;;;5140289;27;9572;-48
2022/06/11 02:37:27;;;;;;;;;21.75;21.75;;;;;;;;5124681;27;8772;-43
2022/06/11 02:40:15;;;;;;;;;28.75;24.50;;;;;;;;5139781;27;8789;-44
2022/06/11 02:43:01;;;;;;;;;26.50;23.75;;;;;;;;5140107;27;8789;-43
2022/06/11 02:45:51;;;;;;;;;29.25;24.25;;;;;;;;5140393;27;8785;-45
2022/06/11 02:48:56;;;;;;;;;27.00;24.75;;;;;;;;5139828;27;8773;-45
2022/06/11 02:51:44;;;;;;;;;34.25;29.00;;;;;;;;5139684;27;8793;-46
2022/06/11 02:54:29;;;;;;;;;32.50;28.75;;;;;;;;5124261;27;8922;-45
2022/06/11 02:57:15;;;;;;;;;33.00;25.00;;;;;;;;5139422;27;8812;-46
2022/06/11 03:00:09;;;;;;;;;32.75;24.25;;;;;;;;5139776;27;8781;-45
2022/06/11 03:02:54;;;;;;;;;28.00;23.75;;;;;;;;5124707;27;8764;-47
2022/06/11 03:05:39;;;;;;;;;30.75;25.75;;;;;;;;5139574;27;8773;-47
2022/06/11 03:08:25;;;;;;;;;37.75;28.75;;;;;;;;5139618;27;8768;-44
2022/06/11 03:11:10;;;;;;;;;30.75;26.25;;;;;;;;5139257;27;9559;-45
2022/06/11 03:13:57;;;;;;;;;30.25;26.75;;;;;;;;5139441;27;8801;-44
2022/06/11 03:16:43;;;;;;;;;36.50;32.00;;;;;;;;5139492;27;8776;-46
2022/06/11 03:19:29;;;;;;;;;37.25;30.00;;;;;;;;5138845;27;8789;-44
2022/06/11 03:22:15;;;;;;;;;28.75;25.00;;;;;;;;5139433;27;8780;-48
2022/06/11 03:25:01;;;;;;;;;33.00;25.75;;;;;;;;5138938;27;8788;-44
2022/06/11 03:27:45;;;;;;;;;32.50;26.00;;;;;;;;5123655;27;8713;-45
2022/06/11 03:30:30;;;;;;;;;33.25;28.50;;;;;;;;5139172;27;8769;-45
2022/06/11 03:33:17;;;;;;;;;33.00;25.00;;;;;;;;5138805;27;8789;-44
2022/06/11 03:36:04;;;;;;;;;31.25;29.00;;;;;;;;5123442;27;8804;-46
2022/06/11 03:38:48;;;;;;;;;43.25;33.75;;;;;;;;5138392;27;9504;-46
2022/06/11 03:41:35;;;;;;;;;43.00;34.00;;;;;;;;5123656;27;9540;-45
2022/06/11 03:44:22;;;;;;;;;47.00;37.25;;;;;;;;5138969;27;8777;-45
2022/06/11 03:47:07;;;;;;;;;43.00;34.75;;;;;;;;5138520;27;8792;-45
2022/06/11 03:50:00;;;;;;;;;44.75;35.25;;;;;;;;5138712;27;8777;-43
2022/06/11 03:52:45;;;;;;;;;42.00;31.75;;;;;;;;5097655;28;8811;-43
2022/06/11 03:55:31;;;;;;;;;32.00;29.00;;;;;;;;5097187;28;8763;-46
2022/06/11 03:58:18;;;;;;;;;31.00;26.00;;;;;;;;5096679;28;8775;-45
2022/06/11 04:01:16;;;;;;;;;35.75;32.00;;;;;;;;5115648;27;8756;-47
2022/06/11 04:04:02;;;;;;;;;31.75;27.25;;;;;;;;5117659;27;8780;-45
2022/06/11 04:06:59;;;;;;;;;35.25;28.25;;;;;;;;5118143;27;8756;-45
2022/06/11 04:09:49;;;;;;;;;28.25;27.50;;;;;;;;5117837;27;8768;-45
2022/06/11 04:12:41;;;;;;;;;31.00;26.25;;;;;;;;5117813;27;8768;-44
2022/06/11 04:15:27;;;;;;;;;34.00;26.00;;;;;;;;5117520;27;8792;-45
2022/06/11 04:18:22;;;;;;;;;37.00;30.00;;;;;;;;5117745;27;9560;-46
2022/06/11 04:21:09;;;;;;;;;37.25;29.50;;;;;;;;5117733;27;8777;-44
2022/06/11 04:23:55;;;;;;;;;32.00;27.25;;;;;;;;5117682;27;8788;-42
2022/06/11 04:26:47;;;;;;;;;30.75;28.25;;;;;;;;5117271;27;8780;-44
2022/06/11 04:29:36;;;;;;;;;35.00;30.00;;;;;;;;5117637;27;8926;-45
2022/06/11 04:32:21;;;;;;;;;29.50;25.50;;;;;;;;5109326;27;8776;-44
2022/06/11 04:35:27;;;;;;;;;33.25;28.50;;;;;;;;5110075;27;8792;-48
2022/06/11 04:38:12;;;;;;;;;31.00;30.50;;;;;;;;5093090;28;8777;-42
2022/06/11 04:40:57;;;;;;;;;40.25;31.00;;;;;;;;5110899;28;9559;-44
2022/06/11 04:43:41;;;;;;;;;37.00;32.75;;;;;;;;5117067;28;8784;-43
2022/06/11 04:46:27;;;;;;;;;34.50;28.75;;;;;;;;5117301;28;8765;-45
2022/06/11 04:49:17;;;;;;;;;30.25;28.75;;;;;;;;5117599;27;8804;-44
2022/06/11 04:52:01;;;;;;;;;38.25;31.25;;;;;;;;5106454;27;8797;-43
2022/06/11 04:54:47;;;;;;;;;29.50;29.00;;;;;;;;5121406;27;8922;-44
2022/06/11 04:57:45;;;;;;;;;34.25;30.25;;;;;;;;5121441;27;8790;-43
2022/06/11 05:00:31;;;;;;;;;32.25;27.75;;;;;;;;5104239;27;8775;-44
2022/06/11 05:03:16;;;;;;;;;33.50;30.00;;;;;;;;5100720;28;8778;-44
2022/06/11 05:06:06;;;;;;;;;35.50;30.75;;;;;;;;5100586;28;8787;-44
2022/06/11 05:09:00;;;;;;;;;27.00;26.00;;;;;;;;5100980;28;8782;-45
2022/06/11 05:11:49;;;;;;;;;37.25;30.00;;;;;;;;5100533;28;8767;-44
2022/06/11 05:14:34;;;;;;;;;30.25;28.00;;;;;;;;5100312;28;8798;-47
2022/06/11 05:17:30;;;;;;;;;34.25;31.00;;;;;;;;5100567;28;8770;-46
2022/06/11 05:20:15;;;;;;;;;40.75;31.75;;;;;;;;5085137;28;8770;-43
2022/06/11 05:23:00;;;;;;;;;40.00;31.00;;;;;;;;5100128;28;8779;-46
2022/06/11 05:25:44;;;;;;;;;39.25;32.50;;;;;;;;5100688;28;8787;-48
2022/06/11 05:28:32;;;;;;;;;37.75;31.00;;;;;;;;5085303;28;8778;-44
2022/06/11 05:31:16;;;;;;;;;41.25;34.25;;;;;;;;5100244;28;8818;-44
2022/06/11 05:34:01;;;;;;;;;44.75;34.75;;;;;;;;5100140;28;8786;-45
2022/06/11 05:36:49;;;;;;;;;52.00;38.25;;;;;;;;5100082;28;8775;-44
2022/06/11 05:39:35;;;;;;;;;46.50;37.75;;;;;;;;5100181;28;8778;-43
2022/06/11 05:42:33;;;;;;;;;45.00;34.50;;;;;;;;5100134;28;8802;-43
2022/06/11 05:45:31;;;;;;;;;43.00;33.50;;;;;;;;5084310;28;8798;-45
2022/06/11 05:51:02;;;;;;;;;34.50;30.25;;;;;;;;5013533;28;8896;-44
2022/06/11 05:54:00;;;;;;;;;36.75;29.75;;;;;;;;4952221;28;8819;-44
2022/06/11 05:56:44;;;;;;;;;31.25;29.00;;;;;;;;4939353;28;8803;-44
2022/06/11 05:59:32;;;;;;;;;28.50;24.25;;;;;;;;4939466;28;8780;-43
2022/06/11 06:05:38;;;;;;;;;28.25;23.50;;;;;;;;4939249;28;8808;-46
2022/06/11 06:08:48;;;;;;;;;31.50;28.75;;;;;;;;4939586;28;8819;-47
2022/06/11 06:11:32;;;;;;;;;25.50;23.75;;;;;;;;4939362;28;8795;-45
2022/06/11 06:14:17;;;;;;;;;34.50;28.75;;;;;;;;4938944;28;8820;-44
2022/06/11 06:17:05;;;;;;;;;31.50;28.25;;;;;;;;4938747;28;8791;-43
2022/06/11 06:20:01;;;;;;;;;35.00;28.50;;;;;;;;4939203;28;8920;-45
2022/06/11 06:22:55;;;;;;;;;33.25;28.50;;;;;;;;4939113;28;8809;-45
2022/06/11 06:25:40;;;;;;;;;34.50;30.75;;;;;;;;4938685;28;8901;-47
2022/06/11 06:28:27;;;;;;;;;34.25;29.75;;;;;;;;4961841;28;8790;-47
2022/06/11 06:31:15;;;;;;;;;33.00;30.00;;;;;;;;5049023;28;8789;-46
2022/06/11 06:34:01;;;;;;;;;33.75;28.00;;;;;;;;5083647;28;8804;-44
2022/06/11 06:36:55;;;;;;;;;28.50;28.50;;;;;;;;5098986;28;8785;-46
2022/06/11 06:39:39;;;;;;;;;32.00;28.50;;;;;;;;5098768;28;8785;-45
2022/06/11 06:42:24;;;;;;;;;38.25;32.00;;;;;;;;5098917;28;8789;-45
2022/06/11 06:45:08;;;;;;;;;40.25;34.00;;;;;;;;5099119;28;8793;-46
2022/06/11 06:47:55;;;;;;;;;38.50;33.25;;;;;;;;5098931;28;8784;-43
2022/06/11 06:50:40;;;;;;;;;42.25;35.00;;;;;;;;5099374;27;8927;-44
2022/06/11 06:53:26;;;;;;;;;50.50;37.25;;;;;;;;5118867;27;9565;-45
2022/06/11 06:56:11;;;;;;;;;44.25;34.50;;;;;;;;5119162;27;8775;-44
2022/06/11 06:59:01;;;;;;;;;45.75;35.50;;;;;;;;5118883;27;8763;-47
2022/06/11 07:01:45;;;;;;;;;44.75;35.25;;;;;;;;5118757;27;8767;-44
2022/06/11 07:04:30;;;;;;;;;47.25;36.75;;;;;;;;5119333;27;8798;-45
2022/06/11 07:07:21;;;;;;;;;47.00;38.00;;;;;;;;5118717;27;8700;-46
2022/06/11 07:10:06;;;;;;;;;47.25;39.50;;;;;;;;5118922;27;8787;-48
2022/06/11 07:12:53;;;;;;;;;49.25;39.50;;;;;;;;5102530;28;8791;-45
2022/06/11 07:15:38;;;;;;;;;45.50;37.50;;;;;;;;5118453;27;8791;-42
2022/06/11 07:18:34;;;;;;;;;45.00;37.50;;;;;;;;5118640;27;8795;-45
2022/06/11 07:21:28;;;;;;;;;47.50;39.00;;;;;;;;5118734;27;8783;-46
2022/06/11 07:24:30;;;;;;;;;47.75;39.50;;;;;;;;5118690;27;8786;-45
2022/06/11 07:27:22;;;;;;;;;49.25;36.50;;;;;;;;5118276;27;8783;-42
2022/06/11 07:30:10;;;;;;;;;45.00;36.00;;;;;;;;5118321;27;8771;-46
2022/06/11 07:33:00;;;;;;;;;44.50;37.75;;;;;;;;5095201;27;8795;-45
2022/06/11 07:35:44;;;;;;;;;41.50;34.00;;;;;;;;5117761;27;8770;-45
2022/06/11 07:38:30;;;;;;;;;40.25;34.50;;;;;;;;5118192;27;8778;-47
2022/06/11 07:41:35;;;;;;;;;40.25;33.50;;;;;;;;5105839;27;8783;-44
2022/06/11 07:44:19;;;;;;;;;43.50;37.50;;;;;;;;5117342;27;8794;-43
2022/06/11 07:47:05;;;;;;;;;36.50;32.00;;;;;;;;5118304;27;8791;-45
2022/06/11 07:49:50;;;;;;;;;44.00;35.25;;;;;;;;5115436;27;8775;-44
2022/06/11 07:52:37;;;;;;;;;42.00;35.50;;;;;;;;5114143;27;8783;-45
2022/06/11 07:55:21;;;;;;;;;33.50;29.25;;;;;;;;5117811;27;8775;-45
2022/06/11 07:58:08;;;;;;;;;42.25;31.75;;;;;;;;5118193;27;8791;-46
2022/06/11 08:00:57;;;;;;;;;40.25;31.75;;;;;;;;5112098;27;8783;-43
2022/06/11 08:03:41;;;;;;;;;35.50;29.50;;;;;;;;5117755;27;9664;-44
2022/06/11 08:06:27;;;;;;;;;37.25;32.25;;;;;;;;5117710;27;8787;-43
2022/06/11 08:09:15;;;;;;;;;39.00;32.50;;;;;;;;5118060;27;8779;-46
2022/06/11 08:12:01;;;;;;;;;45.00;35.75;;;;;;;;5117713;27;9510;-48
2022/06/11 08:14:58;;;;;;;;;42.50;36.50;;;;;;;;5117035;27;9514;-47
2022/06/11 08:17:43;;;;;;;;;41.50;33.75;;;;;;;;5117119;27;8787;-44
2022/06/11 08:20:29;;;;;;;;;35.25;31.50;;;;;;;;5117463;27;8787;-44
2022/06/11 08:23:14;;;;;;;;;38.00;32.50;;;;;;;;5117625;27;8795;-45
2022/06/11 08:26:06;;;;;;;;;34.50;31.25;;;;;;;;5117258;27;9413;-45
2022/06/11 08:28:53;;;;;;;;;39.50;33.75;;;;;;;;5117313;27;8791;-43
2022/06/11 08:31:41;;;;;;;;;38.00;31.75;;;;;;;;5117115;27;8778;-44
2022/06/11 08:34:31;;;;;;;;;40.00;33.25;;;;;;;;5117060;27;8810;-46
2022/06/11 08:37:19;;;;;;;;;44.50;35.00;;;;;;;;5117372;27;8791;-45
2022/06/11 08:40:08;;;;;;;;;43.50;34.25;;;;;;;;5117704;27;8783;-44
2022/06/11 08:43:01;;;;;;;;;40.00;35.00;;;;;;;;5101609;28;8782;-45
2022/06/11 08:46:18;;;;;;;;;39.25;30.00;;;;;;;;5117174;28;8751;-44
2022/06/11 08:49:33;;;;;;;;;45.00;35.25;;;;;;;;5117234;28;8767;-46
2022/06/11 08:52:19;;;;;;;;;41.50;34.25;;;;;;;;5117245;28;8814;-45
2022/06/11 08:55:04;;;;;;;;;43.50;33.50;;;;;;;;5117108;28;10932;-45
2022/06/11 08:58:00;;;;;;;;;41.50;34.50;;;;;;;;5116885;28;8759;-45
2022/06/11 09:00:59;;;;;;;;;39.50;32.50;;;;;;;;5117142;28;8767;-43
2022/06/11 09:03:46;;;;;;;;;39.50;32.00;;;;;;;;5117052;28;9613;-43
2022/06/11 09:06:56;;;;;;;;;35.50;31.75;;;;;;;;5117172;28;9546;-43
2022/06/11 09:09:56;;;;;;;;;42.50;35.25;;;;;;;;5019821;28;8805;-43
2022/06/11 09:13:00;;;;;;;;;47.25;36.00;;;;;;;;5117125;28;8822;-43
2022/06/11 09:15:57;;;;;;;;;41.00;34.25;;;;;;;;5117183;28;9609;-47
2022/06/11 09:18:58;;;;;;;;;43.00;34.00;;;;;;;;5116921;28;9577;-43
2022/06/11 09:22:01;;;;;;;;;42.75;34.00;;;;;;;;5116983;28;8795;-44
2022/06/11 09:24:54;;;;;;;;;35.75;30.75;;;;;;;;5116814;28;8795;-46
2022/06/11 09:28:11;;;;;;;;;40.00;33.25;;;;;;;;5117081;28;8787;-45
2022/06/11 09:31:18;;;;;;;;;42.75;31.50;;;;;;;;5013595;28;8789;-45
2022/06/11 09:34:11;;;;;;;;;40.25;33.00;;;;;;;;5068922;28;8799;-44
2022/06/11 09:37:16;;;;;;;;;33.75;27.00;;;;;;;;5118331;27;8775;-45
2022/06/11 09:40:10;;;;;;;;;38.75;29.50;;;;;;;;5120650;27;8779;-43
2022/06/11 09:43:02;;;;;;;;;29.50;28.75;;;;;;;;5120663;27;9586;-53
2022/06/11 09:46:06;;;;;;;;;25.50;21.50;;;;;;;;5120354;27;8790;-50
2022/06/11 09:49:12;;;;;;;;;22.75;21.50;;;;;;;;5120377;27;8803;-52
2022/06/11 09:52:05;;;;;;;;;27.25;22.25;;;;;;;;5118655;27;8783;-53
2022/06/11 09:55:01;;;;;;;;;24.50;21.00;;;;;;;;5103187;27;8907;-51
2022/06/11 09:57:55;;;;;;;;;23.00;22.00;;;;;;;;5113787;27;8783;-54
2022/06/11 10:01:02;;;;;;;;;37.75;31.00;;;;;;;;5119856;27;8795;-55
2022/06/11 10:04:02;;;;;;;;;53.25;44.25;;;;;;;;5123626;27;8808;-52
2022/06/11 10:06:50;;;;;;;;;29.50;25.00;;;;;;;;5123105;27;8767;-53
2022/06/11 10:09:43;;;;;;;;;29.50;28.25;;;;;;;;5115290;27;8909;-53
2022/06/11 10:12:43;;;;;;;;;37.75;30.50;;;;;;;;5117914;27;8795;-53
2022/06/11 10:15:35;;;;;;;;;31.50;28.50;;;;;;;;5117066;27;8814;-53
2022/06/11 10:18:39;;;;;;;;;37.00;29.75;;;;;;;;5119159;27;8767;-51
2022/06/11 10:21:30;;;;;;;;;34.75;30.75;;;;;;;;5118604;27;8775;-53
2022/06/11 10:24:19;;;;;;;;;28.25;23.50;;;;;;;;5119019;27;8783;-55
2022/06/11 10:27:10;;;;;;;;;27.25;22.50;;;;;;;;5118999;27;9571;-54
2022/06/11 10:29:56;;;;;;;;;21.75;19.00;;;;;;;;5119307;27;8783;-53
2022/06/11 10:32:46;;;;;;;;;25.25;21.75;;;;;;;;5103116;27;8787;-55
2022/06/11 10:35:35;;;;;;;;;31.00;22.50;;;;;;;;5118600;27;8790;-54
2022/06/11 10:38:43;;;;;;;;;24.50;18.00;;;;;;;;5119015;27;8838;-54
2022/06/11 10:41:42;;;;;;;;;21.00;16.75;;;;;;;;5118606;27;8775;-55
2022/06/11 10:44:41;;;;;;;;;18.75;12.75;;;;;;;;5118887;27;8901;-53
2022/06/11 10:47:43;;;;;;;;;15.50;15.25;;;;;;;;5118368;27;8783;-54
2022/06/11 10:50:35;;;;;;;;;16.50;15.75;;;;;;;;5118881;27;8786;-55
2022/06/11 10:53:37;;;;;;;;;18.75;16.75;;;;;;;;5117610;27;8771;-50
2022/06/11 10:56:29;;;;;;;;;21.50;20.00;;;;;;;;5118123;27;8783;-52
2022/06/11 10:59:31;;;;;;;;;21.00;17.75;;;;;;;;5118352;27;8783;-52
2022/06/11 11:02:35;;;;;;;;;25.25;20.00;;;;;;;;5118090;27;8779;-53
2022/06/11 11:05:24;;;;;;;;;24.00;22.00;;;;;;;;5118123;27;8778;-52
2022/06/11 11:08:17;;;;;;;;;25.25;20.25;;;;;;;;5117608;27;8779;-53
2022/06/11 11:11:06;;;;;;;;;20.25;18.75;;;;;;;;5117836;27;8775;-51
2022/06/11 11:13:55;;;;;;;;;24.50;20.25;;;;;;;;5117645;27;8807;-54
2022/06/11 11:16:43;;;;;;;;;27.75;21.75;;;;;;;;5118345;27;8794;-52
2022/06/11 11:19:40;;;;;;;;;34.75;28.50;;;;;;;;5116428;27;8779;-54
2022/06/11 11:22:27;;;;;;;;;28.25;20.50;;;;;;;;5117288;27;8779;-55
2022/06/11 11:25:18;;;;;;;;;21.25;19.00;;;;;;;;5117804;27;8807;-52
2022/06/11 11:28:04;;;;;;;;;19.00;15.75;;;;;;;;5117820;27;8909;-54
2022/06/11 11:30:58;;;;;;;;;20.75;17.25;;;;;;;;5117563;27;9553;-54
2022/06/11 11:33:57;;;;;;;;;22.75;18.25;;;;;;;;5117669;27;8814;-53
2022/06/11 11:36:43;;;;;;;;;24.50;22.50;;;;;;;;5117802;27;8794;-52
2022/06/11 11:39:32;;;;;;;;;31.75;26.25;;;;;;;;5117507;27;8787;-54
2022/06/11 11:42:39;;;;;;;;;39.00;32.25;;;;;;;;5117519;27;8799;-52
2022/06/11 11:45:43;;;;;;;;;21.75;19.25;;;;;;;;5116791;27;8799;-54
2022/06/11 11:48:30;;;;;;;;;20.50;16.25;;;;;;;;5117483;27;8787;-51
2022/06/11 11:51:23;;;;;;;;;15.00;11.00;;;;;;;;5117365;27;8787;-53
2022/06/11 11:54:40;;;;;;;;;19.00;17.25;;;;;;;;5116898;27;8803;-54
2022/06/11 11:57:32;;;;;;;;;36.75;26.25;;;;;;;;5117132;27;8779;-52
2022/06/11 12:00:31;;;;;;;;;20.00;17.25;;;;;;;;5116630;27;8905;-53
2022/06/11 12:03:30;;;;;;;;;19.25;16.00;;;;;;;;5116260;27;8807;-51
2022/06/11 12:06:18;;;;;;;;;16.00;14.75;;;;;;;;5117494;27;8783;-53
2022/06/11 12:09:27;;;;;;;;;7.00;6.00;;;;;;;;5117226;27;8787;-53
2022/06/11 12:12:30;;;;;;;;;9.00;9.00;;;;;;;;5117420;27;8770;-52
2022/06/11 12:15:16;;;;;;;;;10.50;9.00;;;;;;;;5116531;27;8791;-52
2022/06/11 12:18:46;;;;;;;;;11.00;11.00;;;;;;;;5117237;27;8779;-53
2022/06/11 12:21:35;;;;;;;;;6.00;5.50;;;;;;;;5117097;27;8786;-52
2022/06/11 12:24:43;;;;;;;;;9.25;7.00;;;;;;;;5101405;27;8786;-49
2022/06/11 12:27:36;;;;;;;;;8.75;8.75;;;;;;;;5115833;27;8791;-54
2022/06/11 12:30:26;;;;;;;;;11.25;9.25;;;;;;;;5117089;27;8767;-50
2022/06/11 12:33:14;;;;;;;;;10.00;7.75;;;;;;;;5116686;27;8775;-55
2022/06/11 12:36:12;;;;;;;;;9.25;7.00;;;;;;;;5100693;27;8791;-54
2022/06/11 12:39:16;;;;;;;;;7.00;6.75;;;;;;;;5117047;27;8783;-55
2022/06/11 12:42:20;;;;;;;;;9.25;5.75;;;;;;;;5113537;27;8795;-50
2022/06/11 12:45:24;;;;;;;;;9.25;8.50;;;;;;;;5116113;28;8775;-54
2022/06/11 12:48:18;;;;;;;;;13.00;7.00;;;;;;;;5116708;28;8787;-53
2022/06/11 12:51:14;;;;;;;;;7.75;7.25;;;;;;;;5116736;28;8787;-51
2022/06/11 12:54:07;;;;;;;;;8.50;8.50;;;;;;;;5100602;28;8799;-53
2022/06/11 12:56:51;;;;;;;;;9.00;8.00;;;;;;;;5116298;28;9598;-52
2022/06/11 13:00:14;;;;;;;;;11.50;8.25;;;;;;;;5116185;28;8783;-51
2022/06/11 13:03:31;;;;;;;;;8.00;5.00;;;;;;;;5116962;28;8803;-52
2022/06/11 13:06:16;;;;;;;;;10.50;6.75;;;;;;;;5081262;28;8806;-54
2022/06/11 13:09:06;;;;;;;;;6.75;4.75;;;;;;;;5116474;28;8794;-52
2022/06/11 13:11:53;;;;;;;;;15.50;14.25;;;;;;;;5119967;27;8795;-53
2022/06/11 13:15:04;;;;;;;;;23.75;20.75;;;;;;;;5120272;27;8786;-54
2022/06/11 13:18:10;;;;;;;;;26.75;21.25;;;;;;;;5099618;27;8811;-53
2022/06/11 13:21:04;;;;;;;;;25.75;24.00;;;;;;;;5120132;27;8783;-53
2022/06/11 13:24:21;;;;;;;;;38.25;31.75;;;;;;;;5120435;27;8811;-56
2022/06/11 13:27:35;;;;;;;;;59.00;44.50;;;;;;;;5076036;27;8818;-53
2022/06/11 13:30:41;;;;;;;;;25.00;20.25;;;;;;;;5120421;27;8798;-53
2022/06/11 13:33:59;;;;;;;;;18.00;14.50;;;;;;;;5120067;27;8929;-55
2022/06/11 13:37:05;;;;;;;;;9.75;8.25;;;;;;;;5119595;27;8806;-52
2022/06/11 13:39:56;;;;;;;;;7.25;5.75;;;;;;;;5120118;27;8810;-58
2022/06/11 13:42:47;;;;;;;;;9.00;7.25;;;;;;;;5120582;27;8836;-55
2022/06/11 13:45:42;;;;;;;;;24.25;11.50;;;;;;;;5120236;27;8802;-57
2022/06/11 13:48:47;;;;;;;;;13.00;10.75;;;;;;;;5119598;27;8795;-57
2022/06/11 13:51:33;;;;;;;;;14.25;8.50;;;;;;;;5119798;27;8799;-57
2022/06/11 13:57:27;;;;;;;;;12.75;9.50;;;;;;;;5119905;27;8774;-57
2022/06/11 14:00:18;;;;;;;;;8.25;7.00;;;;;;;;5120060;27;8794;-58
2022/06/11 14:03:15;;;;;;;;;10.00;8.00;;;;;;;;5115831;27;9190;-57
2022/06/11 14:06:05;;;;;;;;;13.25;9.25;;;;;;;;5118084;27;8802;-57
2022/06/11 14:12:37;;;;;;;;;9.00;9.00;;;;;;;;5119550;27;8778;-55
2022/06/11 14:15:22;;;;;;;;;13.50;8.75;;;;;;;;5119639;27;8802;-55
2022/06/11 14:18:29;;;;;;;;;15.25;6.50;;;;;;;;5119001;27;8775;-56
2022/06/11 14:21:35;;;;;;;;;12.00;9.00;;;;;;;;5119434;27;8791;-56
2022/06/11 14:24:38;;;;;;;;;12.00;9.75;;;;;;;;5119273;27;8790;-58
2022/06/11 14:27:26;;;;;;;;;10.25;8.75;;;;;;;;5118868;27;8786;-56
2022/06/11 14:30:10;;;;;;;;;14.25;12.25;;;;;;;;5119419;27;9566;-57
2022/06/11 14:33:25;;;;;;;;;16.50;11.75;;;;;;;;5118604;27;8771;-56
2022/06/11 14:36:24;;;;;;;;;16.50;13.25;;;;;;;;5117821;27;8807;-56
2022/06/11 14:39:27;;;;;;;;;15.25;13.50;;;;;;;;5117974;27;8818;-56
2022/06/11 14:42:36;;;;;;;;;21.75;14.00;;;;;;;;5117937;27;8806;-57
2022/06/11 14:45:36;;;;;;;;;17.75;13.00;;;;;;;;5116172;27;9594;-55
2022/06/11 14:48:46;;;;;;;;;17.50;14.00;;;;;;;;5117514;27;8795;-57
2022/06/11 14:51:32;;;;;;;;;15.50;12.00;;;;;;;;5117172;27;9565;-56
2022/06/11 14:54:27;;;;;;;;;13.25;12.00;;;;;;;;5118709;27;8819;-57
2022/06/11 14:57:22;;;;;;;;;19.50;13.50;;;;;;;;5118918;27;9554;-56
2022/06/11 15:00:32;;;;;;;;;13.75;10.25;;;;;;;;5118267;27;8778;-56
2022/06/11 15:03:19;;;;;;;;;19.00;12.75;;;;;;;;5118571;27;8909;-56
2022/06/11 15:06:13;;;;;;;;;13.00;10.50;;;;;;;;5116251;27;8775;-57
2022/06/11 15:09:16;;;;;;;;;17.50;9.25;;;;;;;;5118232;27;8771;-57
2022/06/11 15:12:17;;;;;;;;;11.25;9.75;;;;;;;;5118657;27;8844;-57
2022/06/11 15:15:10;;;;;;;;;11.50;8.50;;;;;;;;5118137;27;8810;-56
2022/06/11 15:17:58;;;;;;;;;9.75;8.75;;;;;;;;5108693;27;8805;-57
2022/06/11 15:20:44;;;;;;;;;26.00;18.50;;;;;;;;5113906;27;8790;-57
2022/06/11 15:23:33;;;;;;;;;20.75;17.00;;;;;;;;5117727;27;8783;-56
2022/06/11 15:26:30;;;;;;;;;17.50;12.75;;;;;;;;5118444;27;8787;-58
2022/06/11 15:29:31;;;;;;;;;14.00;10.25;;;;;;;;5118386;27;8767;-55
2022/06/11 15:32:27;;;;;;;;;12.00;12.00;;;;;;;;5118144;27;8770;-57
2022/06/11 15:35:26;;;;;;;;;13.25;10.50;;;;;;;;5116927;27;8807;-58
2022/06/11 15:38:19;;;;;;;;;9.75;7.50;;;;;;;;5118189;27;8791;-57
2022/06/11 15:41:06;;;;;;;;;11.25;8.00;;;;;;;;5102908;27;8802;-57
2022/06/11 15:43:53;;;;;;;;;10.50;10.25;;;;;;;;5118100;27;9562;-57
2022/06/11 15:46:38;;;;;;;;;11.25;9.00;;;;;;;;5117938;27;8775;-56
2022/06/11 15:49:30;;;;;;;;;18.00;13.25;;;;;;;;5117780;27;8779;-57
2022/06/11 15:52:49;;;;;;;;;21.25;17.25;;;;;;;;5117383;27;9574;-57
2022/06/11 15:55:40;;;;;;;;;20.00;16.25;;;;;;;;5118046;27;8826;-57
2022/06/11 15:58:29;;;;;;;;;21.00;19.00;;;;;;;;5117990;27;8798;-56
2022/06/11 16:01:14;;;;;;;;;23.25;20.50;;;;;;;;5117672;27;8779;-57
2022/06/11 16:03:59;;;;;;;;;20.25;18.50;;;;;;;;5118098;27;8799;-55
2022/06/11 16:06:59;;;;;;;;;20.50;20.00;;;;;;;;5034209;28;8818;-57
2022/06/11 16:09:44;;;;;;;;;19.75;19.50;;;;;;;;5034665;28;8791;-57
2022/06/11 16:12:30;;;;;;;;;21.00;18.75;;;;;;;;5034628;28;8807;-57
2022/06/11 16:15:16;;;;;;;;;20.50;17.25;;;;;;;;5034208;28;8831;-57
2022/06/11 16:18:00;;;;;;;;;19.75;18.25;;;;;;;;5034641;28;8788;-57
2022/06/11 16:20:55;;;;;;;;;17.25;15.25;;;;;;;;5034195;28;8795;-57
2022/06/11 16:23:39;;;;;;;;;17.00;15.75;;;;;;;;5033713;28;8795;-57
2022/06/11 16:26:24;;;;;;;;;17.25;16.25;;;;;;;;5034399;28;8973;-57
2022/06/11 16:29:13;;;;;;;;;18.25;17.00;;;;;;;;5034107;28;8803;-57
2022/06/11 16:31:58;;;;;;;;;16.75;16.50;;;;;;;;5034092;28;9594;-56
2022/06/11 16:34:46;;;;;;;;;22.50;18.25;;;;;;;;5034162;28;8819;-57
2022/06/11 16:37:32;;;;;;;;;21.00;19.25;;;;;;;;5034105;28;8771;-57
2022/06/11 16:40:38;;;;;;;;;23.75;21.50;;;;;;;;5034063;28;8784;-57
2022/06/11 16:46:34;;;;;;;;;22.00;19.75;;;;;;;;5116839;28;8905;-57
2022/06/11 16:56:32;;;;;;;;;19.75;18.25;;;;;;;;5117032;28;8775;-57
2022/06/11 16:59:20;;;;;;;;;19.50;19.50;;;;;;;;5117130;28;8787;-58
2022/06/11 17:05:07;;;;;;;;;24.75;22.75;;;;;;;;5116922;28;8791;-57
2022/06/11 17:08:08;;;;;;;;;24.50;20.25;;;;;;;;5116993;28;8786;-58
2022/06/11 17:10:55;;;;;;;;;27.50;25.75;;;;;;;;5108528;28;8802;-57
2022/06/11 17:13:45;;;;;;;;;31.00;24.75;;;;;;;;5112568;28;8795;-56
2022/06/11 17:16:34;;;;;;;;;22.75;19.50;;;;;;;;5116045;28;8771;-55
2022/06/11 17:19:36;;;;;;;;;21.25;19.50;;;;;;;;5116893;28;8774;-57
2022/06/11 17:22:29;;;;;;;;;27.50;21.00;;;;;;;;5116465;28;8787;-58
2022/06/11 17:25:14;;;;;;;;;24.00;21.50;;;;;;;;5117024;28;8806;-56
2022/06/11 17:27:58;;;;;;;;;24.75;20.00;;;;;;;;5116300;28;8802;-57
2022/06/11 17:30:43;;;;;;;;;29.75;24.50;;;;;;;;5116977;28;9637;-57